Time;durP1;ratioP1;P1;durP2;ratioP2;P2;SDS_P1;SDS_P2;PMS_P1;PMS_P2;Temp;Humidity;BMP_temperature;BMP_pressure;BME280_temperature;BME280_humidity;BME280_pressure;Samples;Min_cycle;Max_cycle;Signal;HPM_P1;HPM_P2
2023/09/26 00:01:33;;;;;;;32.10;28.60;;;;;;;16.94;100.00;99846.33;109655;1250;58837;-68
2023/09/26 00:04:00;;;;;;;33.30;28.10;;;;;;;16.96;100.00;99845.86;109691;1251;65852;-68
2023/09/26 00:06:28;;;;;;;32.10;27.90;;;;;;;16.96;100.00;99847.63;109680;1249;59047;-69
2023/09/26 00:08:54;;;;;;;33.70;29.00;;;;;;;16.96;100.00;99847.95;109505;1251;63774;-69
2023/09/26 00:11:21;;;;;;;31.70;27.30;;;;;;;16.96;100.00;99845.83;109639;1251;58937;-69
2023/09/26 00:13:50;;;;;;;36.30;29.40;;;;;;;16.95;100.00;99841.40;109728;1251;58955;-69
2023/09/26 00:16:16;;;;;;;32.10;28.20;;;;;;;16.95;100.00;99840.16;109575;1251;66132;-69
2023/09/26 00:18:43;;;;;;;31.20;27.80;;;;;;;16.94;100.00;99840.08;109675;1249;59147;-69
2023/09/26 00:21:12;;;;;;;31.90;26.60;;;;;;;16.94;100.00;99840.81;109639;1250;58989;-69
2023/09/26 00:23:39;;;;;;;33.00;27.50;;;;;;;16.93;100.00;99844.80;109630;1250;58907;-69
2023/09/26 00:26:07;;;;;;;33.70;28.60;;;;;;;16.93;100.00;99843.89;109539;1252;59007;-69
2023/09/26 00:28:34;;;;;;;36.10;28.50;;;;;;;16.93;100.00;99836.00;109409;1253;66115;-69
2023/09/26 00:31:04;;;;;;;35.00;28.60;;;;;;;16.93;100.00;99837.80;109518;1253;59065;-69
2023/09/26 00:33:32;;;;;;;29.20;26.10;;;;;;;16.93;100.00;99836.74;109551;1254;65261;-69
2023/09/26 00:36:10;;;;;;;29.80;26.50;;;;;;;16.91;100.00;99836.73;109499;1254;59040;-69
2023/09/26 00:38:36;;;;;;;30.90;26.00;;;;;;;16.89;100.00;99834.83;109485;1253;59201;-69
2023/09/26 00:41:03;;;;;;;33.00;26.40;;;;;;;16.88;100.00;99835.29;109477;1253;66022;-69
2023/09/26 00:43:30;;;;;;;31.20;25.80;;;;;;;16.88;100.00;99835.81;109515;1253;59018;-70
2023/09/26 00:45:59;;;;;;;35.90;28.10;;;;;;;16.88;100.00;99837.66;109502;1253;62800;-70
2023/09/26 00:48:26;;;;;;;32.70;27.20;;;;;;;16.88;100.00;99838.17;109545;1254;58937;-69
2023/09/26 00:50:53;;;;;;;30.80;26.30;;;;;;;16.88;100.00;99834.80;109482;1253;59281;-70
2023/09/26 00:53:27;;;;;;;29.50;25.80;;;;;;;16.88;100.00;99833.55;109541;1254;64808;-69
2023/09/26 00:55:55;;;;;;;32.30;25.70;;;;;;;16.87;100.00;99831.77;109571;1254;60190;-69
2023/09/26 00:58:23;;;;;;;30.10;25.50;;;;;;;16.87;100.00;99831.41;109554;1251;64055;-70
2023/09/26 01:00:51;;;;;;;29.10;26.00;;;;;;;16.87;100.00;99829.66;109546;1251;58975;-69
2023/09/26 01:03:18;;;;;;;29.60;25.40;;;;;;;16.88;100.00;99830.85;109625;1251;58985;-70
2023/09/26 01:05:45;;;;;;;30.80;25.50;;;;;;;16.88;100.00;99825.98;109517;1251;75858;-70
2023/09/26 01:08:11;;;;;;;31.20;25.10;;;;;;;16.90;100.00;99828.19;109556;1251;58969;-70
2023/09/26 01:10:39;;;;;;;29.30;24.60;;;;;;;16.92;100.00;99830.95;109577;1251;64048;-69
2023/09/26 01:13:05;;;;;;;31.80;25.60;;;;;;;16.92;100.00;99827.50;109636;1251;58982;-70
2023/09/26 01:15:36;;;;;;;28.70;23.70;;;;;;;16.93;100.00;99832.09;109570;1251;58933;-70
2023/09/26 01:18:14;;;;;;;29.60;25.20;;;;;;;16.93;100.00;99831.34;109582;1251;64511;-70
2023/09/26 01:20:43;;;;;;;31.60;25.30;;;;;;;16.94;100.00;99830.17;109579;1251;60053;-67
2023/09/26 01:23:14;;;;;;;36.90;29.70;;;;;;;16.96;100.00;99830.40;109539;1251;64202;-70
2023/09/26 01:25:42;;;;;;;30.60;27.30;;;;;;;16.97;100.00;99829.63;109588;1251;58976;-70
2023/09/26 01:28:10;;;;;;;43.70;39.30;;;;;;;16.97;100.00;99827.47;109605;1251;58994;-70
2023/09/26 01:30:38;;;;;;;34.80;31.10;;;;;;;16.96;100.00;99825.55;109674;1250;66025;-70
2023/09/26 01:33:11;;;;;;;29.90;26.70;;;;;;;16.96;100.00;99820.02;109680;1249;61279;-70
2023/09/26 01:35:37;;;;;;;28.10;25.00;;;;;;;16.95;100.00;99819.53;109631;1250;63885;-70
2023/09/26 01:38:04;;;;;;;25.40;22.70;;;;;;;16.96;100.00;99817.88;109691;1249;58964;-70
2023/09/26 01:40:31;;;;;;;26.80;24.00;;;;;;;16.95;100.00;99816.63;109686;1251;58986;-70
2023/09/26 01:42:57;;;;;;;27.00;24.00;;;;;;;16.95;100.00;99809.82;109667;1250;66074;-69
2023/09/26 01:45:24;;;;;;;27.30;24.20;;;;;;;16.94;100.00;99812.08;109695;1250;59166;-69
2023/09/26 01:47:51;;;;;;;25.60;21.30;;;;;;;16.94;100.00;99809.23;109696;1249;59025;-70
2023/09/26 01:50:20;;;;;;;26.00;22.60;;;;;;;16.92;100.00;99806.10;109635;1250;58970;-70
2023/09/26 01:52:47;;;;;;;26.20;22.30;;;;;;;16.91;100.00;99808.89;109467;1250;60192;-70
2023/09/26 01:55:19;;;;;;;26.90;21.40;;;;;;;16.90;100.00;99809.30;109510;1250;66115;-70
2023/09/26 01:57:46;;;;;;;22.10;19.80;;;;;;;16.88;100.00;99807.48;109732;1249;60189;-70
2023/09/26 02:00:32;;;;;;;24.10;19.90;;;;;;;16.87;100.00;99803.80;109520;1250;62529;-69
2023/09/26 02:02:58;;;;;;;25.40;20.50;;;;;;;16.86;100.00;99807.08;109446;1250;59015;-70
2023/09/26 02:05:25;;;;;;;22.10;19.60;;;;;;;16.87;100.00;99805.07;109538;1250;59009;-69
2023/09/26 02:07:51;;;;;;;23.60;19.50;;;;;;;16.87;100.00;99807.37;109660;1249;64511;-69
2023/09/26 02:10:19;;;;;;;22.00;19.60;;;;;;;16.86;100.00;99807.08;109686;1250;58997;-69
2023/09/26 02:12:48;;;;;;;22.10;18.80;;;;;;;16.85;100.00;99806.83;109596;1250;64080;-70
2023/09/26 02:15:15;;;;;;;22.00;18.30;;;;;;;16.84;100.00;99806.35;109568;1251;58908;-69
2023/09/26 02:17:42;;;;;;;21.50;19.30;;;;;;;16.83;100.00;99805.18;109731;1249;59038;-70
2023/09/26 02:20:15;;;;;;;23.50;21.10;;;;;;;16.83;100.00;99805.77;109693;1249;67592;-69
2023/09/26 02:22:47;;;;;;;21.60;19.30;;;;;;;16.82;100.00;99804.59;109616;1250;60127;-70
2023/09/26 02:25:14;;;;;;;22.70;19.50;;;;;;;16.83;100.00;99812.42;109649;1249;64081;-70
2023/09/26 02:27:43;;;;;;;22.30;18.60;;;;;;;16.84;100.00;99815.75;109533;1250;59182;-70
2023/09/26 02:30:11;;;;;;;21.70;18.90;;;;;;;16.85;100.00;99811.36;109419;1254;58962;-69
2023/09/26 02:32:38;;;;;;;20.10;17.90;;;;;;;16.85;100.00;99810.42;109648;1249;64834;-69
2023/09/26 02:35:08;;;;;;;21.90;18.10;;;;;;;16.85;100.00;99811.48;109695;1249;60524;-69
2023/09/26 02:37:35;;;;;;;21.20;18.50;;;;;;;16.86;100.00;99811.79;109629;1250;64247;-69
2023/09/26 02:40:05;;;;;;;21.50;18.10;;;;;;;16.86;100.00;99813.55;109688;1250;59374;-70
2023/09/26 02:42:33;;;;;;;19.90;17.70;;;;;;;16.86;100.00;99810.71;109667;1249;58958;-70
2023/09/26 02:45:00;;;;;;;24.60;18.80;;;;;;;16.86;100.00;99813.80;109700;1249;66033;-70
2023/09/26 02:47:29;;;;;;;24.30;18.40;;;;;;;16.85;100.00;99813.11;109738;1249;60112;-68
2023/09/26 02:49:56;;;;;;;19.40;17.30;;;;;;;16.86;100.00;99809.66;109690;1249;62515;-68
2023/09/26 02:52:25;;;;;;;21.80;18.50;;;;;;;16.85;100.00;99810.42;109654;1250;58981;-68
2023/09/26 02:54:52;;;;;;;21.80;19.60;;;;;;;16.85;100.00;99809.38;109706;1249;58891;-68
2023/09/26 02:57:19;;;;;;;23.10;18.60;;;;;;;16.84;100.00;99811.45;109664;1249;66127;-68
2023/09/26 02:59:46;;;;;;;23.10;17.10;;;;;;;16.84;100.00;99809.11;109689;1249;60151;-68
2023/09/26 03:02:12;;;;;;;21.90;18.90;;;;;;;16.84;100.00;99807.98;109641;1249;62555;-68
2023/09/26 03:04:38;;;;;;;25.40;20.50;;;;;;;16.85;100.00;99806.30;109625;1250;58983;-69
2023/09/26 03:07:05;;;;;;;20.30;17.90;;;;;;;16.85;100.00;99810.80;109692;1249;59010;-68
2023/09/26 03:09:31;;;;;;;21.50;17.50;;;;;;;16.84;100.00;99810.67;109669;1249;59044;-68
2023/09/26 03:11:58;;;;;;;19.30;17.30;;;;;;;16.83;100.00;99810.09;109657;1250;59393;-69
2023/09/26 03:14:25;;;;;;;19.40;17.40;;;;;;;16.81;100.00;99806.42;109652;1249;58985;-68
2023/09/26 03:16:51;;;;;;;21.50;18.30;;;;;;;16.80;100.00;99804.17;109698;1249;59111;-68
2023/09/26 03:19:22;;;;;;;19.40;17.30;;;;;;;16.80;100.00;99805.98;109709;1249;58914;-68
2023/09/26 03:21:50;;;;;;;23.90;19.80;;;;;;;16.80;100.00;99807.10;109693;1249;66138;-69
2023/09/26 03:24:18;;;;;;;21.40;19.10;;;;;;;16.80;100.00;99807.09;109638;1250;60251;-69
2023/09/26 03:26:45;;;;;;;20.90;18.70;;;;;;;16.80;100.00;99808.54;109677;1249;64063;-69
2023/09/26 03:29:12;;;;;;;23.30;20.00;;;;;;;16.78;100.00;99807.38;109594;1250;59039;-69
2023/09/26 03:31:41;;;;;;;20.90;18.70;;;;;;;16.78;100.00;99803.30;109658;1249;59016;-68
2023/09/26 03:34:09;;;;;;;24.40;19.80;;;;;;;16.77;100.00;99803.89;109678;1250;66003;-69
2023/09/26 03:36:36;;;;;;;22.00;19.70;;;;;;;16.75;100.00;99809.96;109401;1250;59887;-69
2023/09/26 03:39:03;;;;;;;22.30;19.70;;;;;;;16.73;100.00;99808.73;109683;1249;64050;-69
2023/09/26 03:41:32;;;;;;;21.10;18.90;;;;;;;16.70;100.00;99809.80;109509;1250;58931;-69
2023/09/26 03:43:58;;;;;;;21.70;19.50;;;;;;;16.68;100.00;99805.77;109494;1250;58998;-69
2023/09/26 03:46:25;;;;;;;21.40;19.20;;;;;;;16.68;100.00;99807.05;109708;1249;64837;-69
2023/09/26 03:48:52;;;;;;;22.60;18.90;;;;;;;16.68;100.00;99804.02;109692;1249;60234;-69
2023/09/26 03:51:18;;;;;;;21.70;18.90;;;;;;;16.66;100.00;99802.90;109640;1249;62639;-69
2023/09/26 03:53:45;;;;;;;20.30;17.90;;;;;;;16.65;100.00;99800.98;109659;1250;58981;-69
2023/09/26 03:56:12;;;;;;;20.70;18.50;;;;;;;16.65;100.00;99802.67;109674;1249;58994;-69
2023/09/26 03:58:38;;;;;;;21.30;18.70;;;;;;;16.65;100.00;99805.02;109608;1249;59618;-69
2023/09/26 04:01:12;;;;;;;21.20;19.00;;;;;;;16.64;100.00;99802.73;109691;1249;58960;-69
2023/09/26 04:03:40;;;;;;;19.90;17.60;;;;;;;16.63;100.00;99806.20;109639;1249;63749;-68
2023/09/26 04:06:07;;;;;;;23.60;19.50;;;;;;;16.61;100.00;99805.45;109655;1249;58927;-69
2023/09/26 04:08:34;;;;;;;21.40;18.60;;;;;;;16.60;100.00;99806.46;109700;1250;59086;-69
2023/09/26 04:11:00;;;;;;;21.10;18.90;;;;;;;16.59;100.00;99805.64;109655;1249;66051;-69
2023/09/26 04:13:27;;;;;;;24.10;20.50;;;;;;;16.58;100.00;99804.27;109703;1249;59098;-69
2023/09/26 04:15:53;;;;;;;24.40;21.30;;;;;;;16.57;100.00;99805.84;109715;1249;64075;-69
2023/09/26 04:18:22;;;;;;;24.60;20.50;;;;;;;16.55;100.00;99809.34;109637;1249;59063;-68
2023/09/26 04:20:51;;;;;;;24.20;19.70;;;;;;;16.55;100.00;99808.48;109671;1249;58846;-68
2023/09/26 04:23:18;;;;;;;21.80;19.40;;;;;;;16.55;100.00;99807.41;109685;1249;66077;-69
2023/09/26 04:25:44;;;;;;;24.20;18.90;;;;;;;16.55;100.00;99807.38;109705;1250;58962;-68
2023/09/26 04:28:11;;;;;;;24.30;20.50;;;;;;;16.55;100.00;99807.58;109661;1249;62838;-69
2023/09/26 04:30:39;;;;;;;23.60;19.70;;;;;;;16.55;100.00;99808.88;109664;1250;58944;-68
2023/09/26 04:33:07;;;;;;;25.40;21.10;;;;;;;16.54;100.00;99810.17;109655;1249;58950;-69
2023/09/26 04:35:34;;;;;;;24.90;21.40;;;;;;;16.53;100.00;99813.69;109688;1249;67169;-70
2023/09/26 04:38:01;;;;;;;22.60;18.80;;;;;;;16.53;100.00;99814.75;109704;1249;59159;-68
2023/09/26 04:40:28;;;;;;;23.70;19.20;;;;;;;16.54;100.00;99818.61;109426;1250;64037;-68
2023/09/26 04:42:59;;;;;;;21.80;19.00;;;;;;;16.54;100.00;99816.83;109563;1250;59283;-68
2023/09/26 04:45:29;;;;;;;21.00;18.50;;;;;;;16.54;100.00;99818.81;109676;1249;59018;-68
2023/09/26 04:48:02;;;;;;;22.50;20.00;;;;;;;16.54;100.00;99821.81;109645;1249;64858;-69
2023/09/26 04:50:29;;;;;;;25.30;20.50;;;;;;;16.53;100.00;99824.39;109522;1249;59440;-68
2023/09/26 04:52:57;;;;;;;25.30;19.30;;;;;;;16.54;100.00;99824.36;109680;1249;64050;-68
2023/09/26 04:55:24;;;;;;;68.50;22.90;;;;;;;16.54;100.00;99823.60;109582;1250;58987;-68
2023/09/26 04:57:50;;;;;;;25.90;21.10;;;;;;;16.54;100.00;99827.00;109690;1249;59068;-68
2023/09/26 05:00:17;;;;;;;23.60;21.00;;;;;;;16.54;100.00;99832.80;109612;1250;64864;-68
2023/09/26 05:02:45;;;;;;;24.50;21.80;;;;;;;16.54;100.00;99830.48;109714;1249;59228;-69
2023/09/26 05:05:12;;;;;;;23.70;20.20;;;;;;;16.54;100.00;99831.53;109452;1250;62863;-68
2023/09/26 05:07:42;;;;;;;29.40;23.00;;;;;;;16.54;100.00;99834.38;109673;1249;59005;-70
2023/09/26 05:10:11;;;;;;;25.00;21.20;;;;;;;16.54;100.00;99832.81;109551;1250;59044;-69
2023/09/26 05:12:40;;;;;;;42.60;26.00;;;;;;;16.54;100.00;99837.06;109661;1249;66112;-69
2023/09/26 05:15:12;;;;;;;50.30;38.30;;;;;;;16.54;100.00;99832.56;109633;1249;58964;-68
2023/09/26 05:17:46;;;;;;;48.50;43.60;;;;;;;16.54;100.00;99836.89;109675;1249;64094;-69
2023/09/26 05:20:13;;;;;;;41.10;36.80;;;;;;;16.55;100.00;99839.90;109499;1250;58947;-69
2023/09/26 05:22:46;;;;;;;33.80;30.00;;;;;;;16.56;100.00;99839.41;109615;1249;58927;-70
2023/09/26 05:25:13;;;;;;;26.90;22.80;;;;;;;16.59;100.00;99836.54;109166;1250;66057;-69
2023/09/26 05:27:41;;;;;;;35.30;22.40;;;;;;;16.61;100.00;99835.05;109698;1249;60987;-69
2023/09/26 05:30:09;;;;;;;27.80;23.20;;;;;;;16.64;100.00;99840.79;109653;1249;64933;-69
2023/09/26 05:32:36;;;;;;;25.90;21.80;;;;;;;16.66;100.00;99839.16;109671;1249;59070;-69
2023/09/26 05:35:04;;;;;;;38.50;22.00;;;;;;;16.68;100.00;99838.30;109464;1250;59205;-69
2023/09/26 05:37:30;;;;;;;26.20;23.30;;;;;;;16.70;100.00;99839.99;109531;1250;64817;-70
2023/09/26 05:39:57;;;;;;;27.00;21.60;;;;;;;16.72;100.00;99839.48;109734;1249;60227;-70
2023/09/26 05:42:23;;;;;;;29.50;21.40;;;;;;;16.74;100.00;99838.80;109746;1249;59061;-70
2023/09/26 05:44:50;;;;;;;25.10;20.30;;;;;;;16.74;100.00;99842.70;109585;1249;58970;-76
2023/09/26 05:47:16;;;;;;;22.90;20.00;;;;;;;16.76;100.00;99845.09;109636;1249;58982;-68
2023/09/26 05:49:43;;;;;;;27.50;21.70;;;;;;;16.79;100.00;99846.48;109724;1249;58967;-68
2023/09/26 05:52:09;;;;;;;25.30;19.90;;;;;;;16.81;100.00;99847.00;109679;1249;58991;-68
2023/09/26 05:54:35;;;;;;;28.40;20.10;;;;;;;16.83;100.00;99847.02;109648;1249;59076;-68
2023/09/26 05:57:03;;;;;;;26.00;21.60;;;;;;;16.85;100.00;99845.63;109644;1250;58997;-68
2023/09/26 05:59:29;;;;;;;25.80;21.90;;;;;;;16.83;100.00;99843.05;109637;1249;59007;-68
2023/09/26 06:01:56;;;;;;;24.40;21.90;;;;;;;16.87;100.00;99844.56;109675;1250;66920;-68
2023/09/26 06:04:22;;;;;;;26.10;22.70;;;;;;;16.93;100.00;99842.50;109635;1249;58948;-68
2023/09/26 06:06:49;;;;;;;24.30;21.20;;;;;;;16.96;100.00;99842.92;109687;1249;59415;-68
2023/09/26 06:09:16;;;;;;;24.20;18.90;;;;;;;16.98;100.00;99840.45;109638;1249;59027;-68
2023/09/26 06:11:42;;;;;;;20.80;18.50;;;;;;;17.02;100.00;99843.75;109448;1250;59002;-68
2023/09/26 06:14:09;;;;;;;22.30;17.90;;;;;;;17.06;100.00;99844.68;109689;1249;59050;-69
2023/09/26 06:16:35;;;;;;;26.20;19.40;;;;;;;17.08;100.00;99845.73;109648;1249;59137;-68
2023/09/26 06:19:02;;;;;;;17.80;15.90;;;;;;;17.11;100.00;99845.52;109651;1249;59107;-68
2023/09/26 06:21:28;;;;;;;18.90;16.80;;;;;;;17.13;100.00;99845.53;109696;1249;59049;-68
2023/09/26 06:23:55;;;;;;;20.00;17.50;;;;;;;17.17;100.00;99843.46;109668;1250;59027;-68
2023/09/26 06:26:22;;;;;;;19.90;17.70;;;;;;;17.22;100.00;99846.98;109682;1249;64805;-68
2023/09/26 06:28:49;;;;;;;22.70;16.60;;;;;;;17.26;100.00;99850.02;109707;1250;61509;-68
2023/09/26 06:31:16;;;;;;;18.40;16.50;;;;;;;17.28;100.00;99841.96;109678;1249;64111;-68
2023/09/26 06:33:43;;;;;;;26.50;18.10;;;;;;;17.33;100.00;99839.97;109684;1249;58980;-67
2023/09/26 06:36:20;;;;;;;22.20;17.20;;;;;;;17.38;100.00;99837.05;109655;1249;59003;-68
2023/09/26 06:38:47;;;;;;;23.50;16.40;;;;;;;17.43;100.00;99837.18;109680;1249;75582;-68
2023/09/26 06:41:14;;;;;;;19.90;16.60;;;;;;;17.47;100.00;99836.48;109694;1249;59102;-68
2023/09/26 06:43:40;;;;;;;23.60;16.20;;;;;;;17.51;100.00;99839.96;109483;1249;201582;-68
2023/09/26 06:46:08;;;;;;;18.90;15.60;;;;;;;17.52;100.00;99842.55;109360;1249;58970;-68
2023/09/26 06:48:38;;;;;;;21.70;16.70;;;;;;;17.53;100.00;99840.46;109689;1249;59106;-68
2023/09/26 06:51:05;;;;;;;21.30;15.40;;;;;;;17.57;100.00;99846.29;109674;1249;66945;-68
2023/09/26 06:53:32;;;;;;;17.50;15.70;;;;;;;17.58;100.00;99845.08;109573;1250;59152;-68
2023/09/26 06:56:03;;;;;;;17.00;15.20;;;;;;;17.58;100.00;99844.39;109529;1249;64052;-68
2023/09/26 06:58:30;;;;;;;16.20;14.30;;;;;;;17.60;100.00;99849.10;109652;1249;59032;-68
2023/09/26 07:00:57;;;;;;;16.70;15.00;;;;;;;17.61;100.00;99847.70;109641;1249;59019;-68
2023/09/26 07:03:27;;;;;;;19.20;15.80;;;;;;;17.62;100.00;99851.23;109665;1249;66990;-68
2023/09/26 07:05:54;;;;;;;15.30;13.70;;;;;;;17.66;100.00;99846.80;109678;1249;59916;-68
2023/09/26 07:08:21;;;;;;;14.40;13.00;;;;;;;17.69;100.00;99849.75;109639;1249;64041;-68
2023/09/26 07:10:47;;;;;;;14.50;12.60;;;;;;;17.75;100.00;99846.36;109676;1249;59012;-68
2023/09/26 07:13:14;;;;;;;16.90;13.60;;;;;;;17.84;100.00;99849.97;109680;1249;58845;-68
2023/09/26 07:15:41;;;;;;;15.60;13.50;;;;;;;17.90;100.00;99854.14;109639;1249;66089;-68
2023/09/26 07:18:09;;;;;;;13.70;12.00;;;;;;;17.96;100.00;99852.94;109666;1249;60115;-68
2023/09/26 07:20:43;;;;;;;12.90;11.60;;;;;;;18.01;100.00;99854.88;109560;1250;62916;-68
2023/09/26 07:23:09;;;;;;;13.40;11.50;;;;;;;18.09;100.00;99853.98;109642;1249;59028;-68
2023/09/26 07:25:36;;;;;;;14.60;11.40;;;;;;;18.17;100.00;99853.54;109748;1249;59032;-68
2023/09/26 07:28:03;;;;;;;14.40;12.50;;;;;;;18.24;100.00;99855.04;109668;1250;66028;-68
2023/09/26 07:30:29;;;;;;;13.00;11.70;;;;;;;18.33;100.00;99857.23;109547;1250;59040;-68
2023/09/26 07:32:56;;;;;;;13.40;12.10;;;;;;;18.35;100.00;99860.61;109654;1249;64333;-69
2023/09/26 07:35:23;;;;;;;14.70;13.10;;;;;;;18.31;100.00;99863.66;109654;1249;58946;-68
2023/09/26 07:37:49;;;;;;;16.10;13.50;;;;;;;18.27;100.00;99862.08;109672;1249;58966;-68
2023/09/26 07:40:16;;;;;;;14.20;12.80;;;;;;;18.22;100.00;99863.00;109708;1249;59316;-68
2023/09/26 07:42:42;;;;;;;13.60;12.20;;;;;;;18.15;100.00;99863.92;109648;1249;58972;-68
2023/09/26 07:45:09;;;;;;;14.80;13.40;;;;;;;18.12;100.00;99863.98;109669;1250;59058;-68
2023/09/26 07:47:36;;;;;;;14.70;13.30;;;;;;;18.16;100.00;99862.74;109361;1250;59080;-68
2023/09/26 07:50:03;;;;;;;13.40;12.10;;;;;;;18.21;100.00;99863.64;109705;1249;59164;-69
2023/09/26 07:52:30;;;;;;;15.40;13.80;;;;;;;18.31;100.00;99865.05;109639;1249;65729;-68
2023/09/26 07:54:56;;;;;;;15.30;13.90;;;;;;;18.46;100.00;99861.27;109418;1250;59453;-69
2023/09/26 07:57:23;;;;;;;13.40;12.20;;;;;;;18.65;100.00;99859.09;109682;1250;63753;-69
2023/09/26 07:59:50;;;;;;;11.70;10.70;;;;;;;18.86;100.00;99855.70;109671;1249;59284;-67
2023/09/26 08:02:16;;;;;;;12.50;11.20;;;;;;;19.01;100.00;99855.27;109706;1250;59202;-68
2023/09/26 08:04:42;;;;;;;12.20;10.60;;;;;;;19.22;100.00;99856.09;109677;1250;59123;-67
2023/09/26 08:07:09;;;;;;;13.00;11.70;;;;;;;19.47;100.00;99852.75;109721;1250;59053;-67
2023/09/26 08:09:35;;;;;;;11.40;10.30;;;;;;;19.62;100.00;99855.63;109720;1249;59032;-67
2023/09/26 08:12:02;;;;;;;16.20;11.50;;;;;;;19.67;100.00;99859.27;109650;1250;58919;-67
2023/09/26 08:14:29;;;;;;;11.50;10.40;;;;;;;19.76;100.00;99856.30;109437;1250;59027;-67
2023/09/26 08:16:55;;;;;;;11.00;10.00;;;;;;;19.93;100.00;99858.15;109555;1249;65759;-67
2023/09/26 08:19:22;;;;;;;12.30;10.30;;;;;;;20.03;100.00;99854.71;109644;1250;59787;-67
2023/09/26 08:21:48;;;;;;;11.40;10.50;;;;;;;20.10;100.00;99856.77;109681;1249;59045;-67
2023/09/26 08:24:14;;;;;;;11.10;9.60;;;;;;;20.15;100.00;99854.50;109642;1250;58958;-67
2023/09/26 08:26:41;;;;;;;11.60;10.40;;;;;;;20.22;100.00;99853.02;109683;1250;59415;-67
2023/09/26 08:29:08;;;;;;;11.60;10.60;;;;;;;20.20;100.00;99854.38;109646;1250;66076;-67
2023/09/26 08:31:35;;;;;;;13.10;11.80;;;;;;;20.11;100.00;99855.74;109738;1249;59369;-68
2023/09/26 08:34:02;;;;;;;12.40;11.20;;;;;;;19.99;100.00;99856.41;109731;1249;65098;-67
2023/09/26 08:36:30;;;;;;;13.80;11.10;;;;;;;19.92;100.00;99858.40;109636;1250;59033;-67
2023/09/26 08:38:56;;;;;;;12.80;11.60;;;;;;;19.90;100.00;99860.41;109720;1250;58944;-67
2023/09/26 08:41:26;;;;;;;11.10;10.10;;;;;;;19.86;100.00;99857.23;109710;1249;65730;-67
2023/09/26 08:43:53;;;;;;;11.30;10.30;;;;;;;19.85;100.00;99853.71;109660;1250;60118;-67
2023/09/26 08:46:20;;;;;;;11.40;10.40;;;;;;;19.85;100.00;99852.05;109715;1250;64056;-67
2023/09/26 08:48:47;;;;;;;11.50;10.40;;;;;;;19.90;100.00;99851.20;109654;1249;58932;-67
2023/09/26 08:51:14;;;;;;;11.00;9.80;;;;;;;19.92;100.00;99851.21;109641;1253;59115;-67
2023/09/26 08:53:40;;;;;;;10.50;9.40;;;;;;;19.97;100.00;99847.32;109666;1250;65716;-67
2023/09/26 08:56:07;;;;;;;10.80;9.90;;;;;;;20.10;100.00;99845.36;109729;1250;59077;-67
2023/09/26 08:58:34;;;;;;;11.00;9.90;;;;;;;20.22;100.00;99846.77;109739;1249;59061;-68
2023/09/26 09:01:02;;;;;;;10.10;9.10;;;;;;;20.27;100.00;99840.75;109639;1250;58929;-67
2023/09/26 09:03:29;;;;;;;10.30;9.30;;;;;;;20.34;100.00;99842.95;109685;1249;59414;-68
2023/09/26 09:05:55;;;;;;;10.40;9.30;;;;;;;20.45;100.00;99843.23;109349;1250;59513;-68
2023/09/26 09:08:22;;;;;;;10.10;9.10;;;;;;;20.53;100.00;99843.52;109698;1249;58984;-67
2023/09/26 09:10:52;;;;;;;10.70;9.80;;;;;;;20.60;100.00;99847.60;109687;1249;63724;-67
2023/09/26 09:13:31;;;;;;;10.10;9.20;;;;;;;20.63;100.00;99843.32;109724;1249;58977;-67
2023/09/26 09:16:08;;;;;;;8.70;8.00;;;;;;;20.69;100.00;99835.02;109684;1249;59174;-68
2023/09/26 09:18:36;;;;;;;9.50;8.70;;;;;;;20.81;100.00;99828.92;109660;1250;65979;-67
2023/09/26 09:21:24;;;;;;;9.80;8.80;;;;;;;20.97;100.00;99828.52;109690;1250;59871;-68
2023/09/26 09:23:52;;;;;;;8.90;8.10;;;;;;;21.08;100.00;99832.45;109674;1250;62978;-67
2023/09/26 09:26:21;;;;;;;9.10;8.30;;;;;;;21.12;100.00;99830.45;109697;1250;59108;-68
2023/09/26 09:28:51;;;;;;;11.80;8.60;;;;;;;21.19;100.00;99831.61;109694;1249;61283;-67
2023/09/26 09:31:18;;;;;;;9.00;8.20;;;;;;;21.23;100.00;99831.36;109686;1250;64799;-68
2023/09/26 09:33:46;;;;;;;12.20;10.60;;;;;;;21.32;100.00;99830.92;109648;1250;59931;-68
2023/09/26 09:36:13;;;;;;;11.60;9.50;;;;;;;21.40;100.00;99827.56;109687;1250;64152;-68
2023/09/26 09:38:40;;;;;;;11.50;9.50;;;;;;;21.50;100.00;99827.16;109642;1250;59113;-68
2023/09/26 09:41:07;;;;;;;12.50;10.10;;;;;;;21.55;100.00;99828.14;109557;1250;59051;-68
2023/09/26 09:43:35;;;;;;;13.80;10.60;;;;;;;21.59;100.00;99823.20;109515;1249;65920;-68
2023/09/26 09:46:06;;;;;;;10.60;9.60;;;;;;;21.64;100.00;99826.48;109664;1249;58939;-67
2023/09/26 09:48:40;;;;;;;12.40;10.40;;;;;;;21.66;100.00;99823.35;109715;1250;63773;-68
2023/09/26 09:51:12;;;;;;;11.80;9.70;;;;;;;21.74;100.00;99820.98;109532;1249;58987;-67
2023/09/26 09:53:42;;;;;;;11.50;10.20;;;;;;;21.81;100.00;99818.61;109660;1250;59032;-67
2023/09/26 09:56:09;;;;;;;11.20;10.10;;;;;;;21.86;100.00;99811.58;109677;1250;66030;-67
2023/09/26 09:58:44;;;;;;;14.80;11.20;;;;;;;21.98;100.00;99806.94;109729;1250;59827;-67
2023/09/26 10:01:13;;;;;;;11.30;10.20;;;;;;;22.14;100.00;99807.11;109356;1250;64184;-67
2023/09/26 10:03:41;;;;;;;11.90;9.90;;;;;;;22.26;100.00;99807.39;109719;1250;58961;-67
2023/09/26 10:06:08;;;;;;;10.40;9.40;;;;;;;22.35;100.00;99804.98;109727;1250;59130;-67
2023/09/26 10:08:37;;;;;;;11.30;10.20;;;;;;;22.39;100.00;99801.91;109655;1249;65907;-68
2023/09/26 10:11:05;;;;;;;12.40;11.20;;;;;;;22.41;100.00;99800.17;109707;1250;58941;-68
2023/09/26 10:13:32;;;;;;;13.60;11.00;;;;;;;22.45;100.00;99801.23;109580;1250;65310;-68
2023/09/26 10:16:05;;;;;;;11.50;10.40;;;;;;;22.51;100.00;99798.64;109628;1251;58943;-68
2023/09/26 10:18:37;;;;;;;13.40;10.60;;;;;;;22.60;100.00;99796.18;109611;1251;58966;-67
2023/09/26 10:21:18;;;;;;;14.80;11.00;;;;;;;22.65;100.00;99795.33;109578;1250;66069;-67
2023/09/26 10:24:08;;;;;;;11.70;10.50;;;;;;;22.69;100.00;99791.65;109553;1253;59847;-67
2023/09/26 10:26:37;;;;;;;11.70;10.60;;;;;;;22.79;100.00;99788.48;109412;1251;73696;-67
2023/09/26 10:29:12;;;;;;;12.80;10.60;;;;;;;22.90;100.00;99789.24;109575;1253;58987;-67
2023/09/26 10:31:42;;;;;;;11.50;10.40;;;;;;;23.06;100.00;99788.36;109282;1252;59086;-67
2023/09/26 10:34:09;;;;;;;12.30;11.10;;;;;;;23.14;100.00;99789.48;109570;1252;66014;-68
2023/09/26 10:36:35;;;;;;;11.40;10.20;;;;;;;23.19;100.00;99784.78;109704;1251;60302;-68
2023/09/26 10:39:07;;;;;;;11.80;10.60;;;;;;;23.29;100.00;99783.66;109602;1252;64036;-68
2023/09/26 10:41:33;;;;;;;12.00;10.80;;;;;;;23.38;100.00;99786.16;109562;1251;59374;-68
2023/09/26 10:44:01;;;;;;;11.60;10.40;;;;;;;23.42;100.00;99782.81;109667;1251;59046;-68
2023/09/26 10:46:28;;;;;;;13.30;9.80;;;;;;;23.49;100.00;99781.13;109562;1253;65078;-68
2023/09/26 10:48:56;;;;;;;14.00;10.40;;;;;;;23.55;100.00;99782.56;109580;1251;58914;-68
2023/09/26 10:51:23;;;;;;;10.50;9.50;;;;;;;23.52;100.00;99782.27;109551;1252;63978;-68
2023/09/26 10:53:50;;;;;;;13.40;12.00;;;;;;;23.52;100.00;99778.48;109553;1251;58978;-68
2023/09/26 10:56:17;;;;;;;11.80;10.20;;;;;;;23.53;100.00;99778.41;109627;1251;59010;-68
2023/09/26 10:58:45;;;;;;;13.60;9.50;;;;;;;23.53;100.00;99774.52;109613;1251;65745;-68
2023/09/26 11:01:11;;;;;;;11.40;9.60;;;;;;;23.57;100.00;99770.55;109364;1251;59762;-68
2023/09/26 11:03:38;;;;;;;11.80;9.90;;;;;;;23.59;100.00;99766.82;109572;1251;58969;-68
2023/09/26 11:06:07;;;;;;;10.20;9.20;;;;;;;23.63;100.00;99766.91;109588;1251;58952;-68